createdAt,value
2023-02-09T00:00:18.785Z,78.55
2023-02-09T00:02:46.037Z,81.55
2023-02-09T00:05:13.280Z,79.28
2023-02-09T00:07:40.587Z,70.47
2023-02-09T00:10:07.997Z,74.35
2023-02-09T00:12:56.105Z,82.38
2023-02-09T00:15:23.240Z,76.53
2023-02-09T00:17:50.293Z,80.28
2023-02-09T00:20:17.472Z,74.43
2023-02-09T00:22:44.591Z,77.40
2023-02-09T00:25:11.662Z,81.32
2023-02-09T00:27:38.847Z,77.88
2023-02-09T00:30:06.476Z,80.20
2023-02-09T00:32:33.643Z,74.28
2023-02-09T00:35:00.903Z,79.78
2023-02-09T00:37:28.740Z,75.63
2023-02-09T00:39:55.852Z,77.82
2023-02-09T00:42:22.973Z,76.28
2023-02-09T00:44:50.380Z,78.30
2023-02-09T00:47:17.621Z,81.25
2023-02-09T00:49:44.845Z,75.50
2023-02-09T00:52:11.994Z,76.97
2023-02-09T00:54:39.278Z,83.22
2023-02-09T00:57:06.493Z,80.13
2023-02-09T00:59:35.532Z,80.28
2023-02-09T01:02:03.664Z,84.90
2023-02-09T01:04:30.909Z,76.47
2023-02-09T01:06:58.218Z,75.60
2023-02-09T01:09:25.627Z,84.57
2023-02-09T01:11:52.747Z,76.50
2023-02-09T01:14:19.999Z,74.85
2023-02-09T01:16:47.109Z,75.57
2023-02-09T01:19:14.523Z,80.10
2023-02-09T01:21:42.132Z,78.88
2023-02-09T01:24:13.219Z,85.25
2023-02-09T01:26:41.300Z,82.75
2023-02-09T01:29:08.856Z,80.70
2023-02-09T01:31:36.346Z,88.88
2023-02-09T01:34:04.617Z,81.55
2023-02-09T01:36:33.015Z,86.85
2023-02-09T01:39:01.948Z,90.00
2023-02-09T01:41:29.841Z,85.97
2023-02-09T01:44:19.382Z,92.72
2023-02-09T01:49:16.543Z,91.50
2023-02-09T01:51:47.055Z,89.00
2023-02-09T01:54:19.142Z,87.40
2023-02-09T01:56:52.506Z,89.38
2023-02-09T01:59:20.251Z,92.22
2023-02-09T02:01:47.825Z,90.90
2023-02-09T02:04:17.053Z,84.97
2023-02-09T02:06:44.203Z,83.53
2023-02-09T02:09:16.951Z,84.53
2023-02-09T02:11:47.606Z,79.35
2023-02-09T02:14:36.130Z,89.38
2023-02-09T02:17:21.288Z,80.88
2023-02-09T02:20:07.123Z,89.38
2023-02-09T02:22:41.734Z,83.95
2023-02-09T02:25:43.014Z,82.25
2023-02-09T02:28:34.845Z,76.60
2023-02-09T02:31:26.363Z,82.90
2023-02-09T02:33:59.214Z,79.32
2023-02-09T02:36:41.164Z,85.15
2023-02-09T02:39:26.391Z,86.32
2023-02-09T02:42:21.083Z,79.13
2023-02-09T02:45:22.404Z,82.03
2023-02-09T02:48:24.961Z,86.43
2023-02-09T02:51:17.251Z,85.32
2023-02-09T02:53:50.019Z,84.50
2023-02-09T02:56:24.450Z,84.85
2023-02-09T02:58:55.020Z,84.40
2023-02-09T03:01:26.780Z,82.50
2023-02-09T03:03:57.536Z,93.88
2023-02-09T03:06:24.763Z,85.80
2023-02-09T03:08:55.174Z,92.72
2023-02-09T03:11:25.185Z,93.78
2023-02-09T03:14:01.186Z,88.88
2023-02-09T03:16:40.616Z,91.70
2023-02-09T03:19:25.611Z,93.90
2023-02-09T03:22:19.941Z,90.47
2023-02-09T03:24:55.601Z,83.05
2023-02-09T03:27:27.667Z,85.78
2023-02-09T03:29:59.350Z,84.85
2023-02-09T03:32:27.341Z,89.00
2023-02-09T03:34:55.778Z,87.00
2023-02-09T03:37:23.594Z,90.45
2023-02-09T03:39:50.850Z,82.70
2023-02-09T03:42:17.893Z,85.93
2023-02-09T03:44:45.119Z,88.30
2023-02-09T03:47:12.187Z,84.68
2023-02-09T03:49:41.682Z,84.75
2023-02-09T03:52:11.579Z,93.65
2023-02-09T03:57:06.690Z,82.38
2023-02-09T03:59:37.919Z,83.63
2023-02-09T04:02:08.137Z,77.38
2023-02-09T04:04:36.203Z,76.95
2023-02-09T04:07:04.082Z,76.72
2023-02-09T04:09:31.156Z,81.03
2023-02-09T04:11:58.278Z,78.25
2023-02-09T04:14:25.418Z,76.25
2023-02-09T04:16:52.573Z,79.70
2023-02-09T04:19:19.622Z,78.75
2023-02-09T04:21:46.816Z,75.50
2023-02-09T04:24:14.017Z,76.38
2023-02-09T04:26:41.198Z,76.60
2023-02-09T04:29:08.630Z,70.10
2023-02-09T04:31:35.960Z,74.10
2023-02-09T04:34:03.053Z,70.43
2023-02-09T04:36:30.267Z,77.45
2023-02-09T04:38:57.360Z,75.35
2023-02-09T04:41:24.579Z,76.32
2023-02-09T04:43:51.801Z,77.38
2023-02-09T04:46:19.378Z,81.85
2023-02-09T04:48:46.978Z,73.97
2023-02-09T04:51:14.315Z,76.95
2023-02-09T04:53:41.860Z,73.95
2023-02-09T04:56:09.643Z,79.70
2023-02-09T04:58:55.089Z,79.22
2023-02-09T05:01:24.477Z,77.05
2023-02-09T05:03:52.629Z,77.03
2023-02-09T05:06:19.905Z,71.82
2023-02-09T05:08:47.207Z,80.00
2023-02-09T05:11:14.600Z,80.18
2023-02-09T05:13:41.936Z,79.90
2023-02-09T05:16:12.661Z,83.85
2023-02-09T05:18:39.845Z,85.30
2023-02-09T05:21:06.917Z,87.38
2023-02-09T05:23:34.149Z,89.35
2023-02-09T05:26:01.245Z,93.80
2023-02-09T05:28:28.529Z,86.97
2023-02-09T05:30:55.774Z,77.63
2023-02-09T05:33:24.868Z,78.55
2023-02-09T05:35:53.765Z,76.40
2023-02-09T05:38:20.881Z,79.55
2023-02-09T05:40:48.260Z,80.32
2023-02-09T05:43:15.502Z,75.20
2023-02-09T05:45:42.642Z,81.40
2023-02-09T05:48:09.697Z,82.82
2023-02-09T05:50:37.339Z,83.40
2023-02-09T05:53:08.304Z,81.45
2023-02-09T05:55:35.579Z,83.53
2023-02-09T05:58:02.750Z,87.68
2023-02-09T06:00:30.143Z,90.57
2023-02-09T06:02:57.482Z,94.25
2023-02-09T06:05:25.250Z,88.40
2023-02-09T06:07:52.559Z,89.07
2023-02-09T06:10:20.211Z,88.28
2023-02-09T06:12:47.759Z,90.10
2023-02-09T06:15:18.849Z,90.93
2023-02-09T06:17:46.561Z,92.45
2023-02-09T06:20:13.785Z,93.82
2023-02-09T06:22:40.928Z,93.93
2023-02-09T06:25:08.242Z,98.57
2023-02-09T06:27:36.199Z,93.72
2023-02-09T06:30:03.857Z,92.15
2023-02-09T06:32:30.978Z,102.10
2023-02-09T06:34:58.120Z,104.70
2023-02-09T06:37:25.331Z,103.50
2023-02-09T06:39:52.455Z,102.03
2023-02-09T06:42:19.592Z,96.32
2023-02-09T06:44:46.809Z,86.93
2023-02-09T06:47:13.944Z,91.65
2023-02-09T06:49:41.078Z,84.50
2023-02-09T06:52:08.390Z,98.97
2023-02-09T06:54:35.467Z,92.97
2023-02-09T06:57:02.556Z,94.13
2023-02-09T06:59:29.658Z,87.72
2023-02-09T07:01:56.869Z,87.72
2023-02-09T07:04:23.890Z,89.47
2023-02-09T07:06:50.928Z,92.30
2023-02-09T07:09:17.990Z,92.55
2023-02-09T07:11:45.159Z,94.88
2023-02-09T07:14:12.336Z,90.00
2023-02-09T07:16:39.551Z,90.63
2023-02-09T07:19:06.730Z,97.05
2023-02-09T07:21:33.978Z,99.53
2023-02-09T07:24:01.102Z,88.13
2023-02-09T07:26:28.237Z,88.60
2023-02-09T07:28:55.272Z,91.15
2023-02-09T07:31:22.541Z,86.18
2023-02-09T07:33:49.713Z,89.38
2023-02-09T07:36:17.315Z,86.07
2023-02-09T07:38:45.655Z,85.80
2023-02-09T07:41:18.369Z,86.78
2023-02-09T07:43:46.816Z,84.05
2023-02-09T07:46:19.132Z,91.85
2023-02-09T07:48:46.303Z,87.95
2023-02-09T07:51:16.221Z,86.05
2023-02-09T07:56:10.747Z,86.38
2023-02-09T07:58:37.965Z,85.20
2023-02-09T08:01:07.631Z,81.70
2023-02-09T08:03:39.323Z,85.05
2023-02-09T08:06:26.015Z,82.65
2023-02-09T08:08:57.600Z,83.90
2023-02-09T08:11:28.767Z,83.05
2023-02-09T08:13:57.866Z,86.18
2023-02-09T08:16:30.562Z,79.43
2023-02-09T08:19:02.126Z,81.45
2023-02-09T08:21:34.150Z,77.40
2023-02-09T08:24:01.735Z,78.68
2023-02-09T08:26:30.169Z,77.13
2023-02-09T08:28:58.279Z,73.53
2023-02-09T08:31:25.492Z,72.30
2023-02-09T08:33:52.959Z,71.53
2023-02-09T08:36:21.290Z,71.20
2023-02-09T08:38:48.543Z,71.45
2023-02-09T08:41:17.237Z,67.22
2023-02-09T08:43:51.826Z,68.15
2023-02-09T08:46:19.310Z,61.13
2023-02-09T08:48:47.744Z,55.05
2023-02-09T08:51:17.862Z,56.38
2023-02-09T08:53:52.435Z,59.05
2023-02-09T08:56:21.391Z,58.72
2023-02-09T08:58:50.376Z,56.72
2023-02-09T09:01:17.603Z,51.50
2023-02-09T09:03:44.887Z,54.03
2023-02-09T09:06:12.555Z,49.47
2023-02-09T09:08:40.777Z,47.92
2023-02-09T09:11:13.136Z,50.33
2023-02-09T09:13:42.090Z,44.38
2023-02-09T09:16:21.176Z,46.83
2023-02-09T09:18:49.250Z,41.38
2023-02-09T09:21:18.652Z,45.45
2023-02-09T09:23:46.804Z,45.53
2023-02-09T09:26:17.739Z,45.88
2023-02-09T09:28:44.893Z,45.58
2023-02-09T09:31:15.628Z,41.42
2023-02-09T09:33:43.285Z,47.22
2023-02-09T09:36:12.108Z,40.72
2023-02-09T09:38:39.770Z,44.85
2023-02-09T09:41:21.083Z,46.88
2023-02-09T09:43:49.014Z,43.75
2023-02-09T09:46:21.346Z,44.85
2023-02-09T09:48:52.768Z,44.45
2023-02-09T09:51:28.963Z,42.70
2023-02-09T09:53:59.649Z,43.65
2023-02-09T09:56:30.660Z,42.88
2023-02-09T09:58:59.537Z,48.13
2023-02-09T10:01:29.040Z,46.58
2023-02-09T10:04:02.721Z,50.05
2023-02-09T10:06:34.232Z,50.88
2023-02-09T10:09:12.429Z,51.38
2023-02-09T10:11:48.498Z,49.38
2023-02-09T10:14:16.264Z,53.35
2023-02-09T10:16:45.020Z,55.40
2023-02-09T10:19:21.701Z,52.83
2023-02-09T10:21:49.679Z,53.92
2023-02-09T10:24:32.101Z,50.88
2023-02-09T10:27:22.326Z,48.97
2023-02-09T10:32:21.370Z,54.65
2023-02-09T10:34:51.925Z,49.13
2023-02-09T10:37:21.820Z,54.45
2023-02-09T10:40:25.817Z,56.65
2023-02-09T10:43:01.795Z,50.17
2023-02-09T10:45:37.605Z,50.28
2023-02-09T10:48:13.647Z,52.60
2023-02-09T10:51:00.153Z,52.33
2023-02-09T10:53:29.945Z,45.67
2023-02-09T10:56:21.347Z,54.58
2023-02-09T10:59:04.758Z,51.95
2023-02-09T11:01:42.187Z,51.65
2023-02-09T11:04:27.657Z,48.25
2023-02-09T11:06:59.138Z,51.90
2023-02-09T11:09:39.474Z,51.05
2023-02-09T11:12:11.446Z,53.28
2023-02-09T11:14:38.932Z,51.33
2023-02-09T11:17:19.754Z,45.50
2023-02-09T11:20:31.035Z,44.70
2023-02-09T11:23:26.109Z,43.13
2023-02-09T11:26:28.822Z,46.05
2023-02-09T11:29:34.386Z,42.67
2023-02-09T11:32:04.232Z,39.75
2023-02-09T11:34:37.107Z,40.47
2023-02-09T11:37:38.112Z,40.88
2023-02-09T11:40:08.095Z,40.65
2023-02-09T11:42:57.335Z,41.97
2023-02-09T11:45:44.836Z,39.10
2023-02-09T11:48:28.692Z,40.15
2023-02-09T11:51:11.983Z,40.25
2023-02-09T11:53:51.499Z,38.50
2023-02-09T11:56:21.389Z,38.67
2023-02-09T11:58:57.439Z,39.22
2023-02-09T12:01:47.556Z,41.83
2023-02-09T12:04:20.490Z,39.47
2023-02-09T12:06:56.524Z,37.70
2023-02-09T12:09:42.370Z,37.00
2023-02-09T12:12:15.581Z,35.28
2023-02-09T12:14:54.499Z,37.33
2023-02-09T12:17:25.537Z,38.72
2023-02-09T12:20:02.874Z,39.13
2023-02-09T12:22:35.841Z,36.38
2023-02-09T12:25:12.398Z,38.10
2023-02-09T12:27:47.286Z,35.10
2023-02-09T12:30:40.686Z,36.13
2023-02-09T12:33:25.161Z,35.47
2023-02-09T12:36:05.789Z,36.33
2023-02-09T12:38:54.678Z,34.63
2023-02-09T12:44:25.285Z,35.85
2023-02-09T12:46:55.891Z,34.08
2023-02-09T12:49:28.579Z,41.03
2023-02-09T12:52:01.565Z,39.22
2023-02-09T12:54:31.720Z,36.03
2023-02-09T12:57:17.061Z,42.90
2023-02-09T12:59:50.687Z,44.67
2023-02-09T13:02:33.367Z,47.78
2023-02-09T13:05:12.621Z,41.78
2023-02-09T13:07:54.848Z,45.67
2023-02-09T13:10:22.156Z,43.03
2023-02-09T13:12:58.949Z,43.08
2023-02-09T13:15:33.742Z,41.75
2023-02-09T13:18:16.431Z,43.47
2023-02-09T13:21:08.062Z,44.60
2023-02-09T13:23:53.608Z,43.00
2023-02-09T13:26:26.962Z,41.58
2023-02-09T13:29:21.449Z,41.38
2023-02-09T13:32:13.595Z,42.97
2023-02-09T13:34:53.859Z,41.63
2023-02-09T13:40:03.089Z,37.10
2023-02-09T13:42:35.375Z,37.42
2023-02-09T13:45:02.693Z,41.63
2023-02-09T13:47:29.973Z,38.40
2023-02-09T13:50:13.404Z,38.85
2023-02-09T13:52:40.500Z,35.95
2023-02-09T13:55:17.374Z,35.17
2023-02-09T13:58:07.305Z,38.17
2023-02-09T14:00:45.924Z,36.65
2023-02-09T14:03:18.793Z,35.03
2023-02-09T14:05:57.914Z,32.28
2023-02-09T14:08:26.943Z,32.35
2023-02-09T14:11:41.179Z,34.00
2023-02-09T14:14:52.486Z,33.97
2023-02-09T14:17:35.841Z,28.73
2023-02-09T14:20:03.658Z,31.75
2023-02-09T14:22:34.067Z,33.38
2023-02-09T14:25:06.129Z,32.53
2023-02-09T14:27:39.365Z,30.90
2023-02-09T14:30:19.053Z,30.02
2023-02-09T14:32:48.577Z,31.63
2023-02-09T14:35:20.080Z,28.27
2023-02-09T14:37:48.776Z,32.08
2023-02-09T14:40:21.481Z,32.70
2023-02-09T14:43:22.257Z,32.40
2023-02-09T14:45:59.063Z,29.38
2023-02-09T14:48:28.878Z,30.38
2023-02-09T14:50:59.840Z,31.35
2023-02-09T14:53:30.072Z,35.25
2023-02-09T14:58:28.172Z,32.20
2023-02-09T15:03:24.222Z,33.28
2023-02-09T15:05:59.137Z,32.55
2023-02-09T15:08:28.843Z,28.95
2023-02-09T15:10:59.521Z,30.08
2023-02-09T15:13:30.515Z,32.10
2023-02-09T15:15:57.750Z,34.33
2023-02-09T15:18:27.027Z,33.83
2023-02-09T15:20:54.414Z,34.50
2023-02-09T15:23:21.622Z,30.55
2023-02-09T15:25:48.932Z,32.78
2023-02-09T15:28:28.828Z,35.05
2023-02-09T15:30:57.781Z,31.05
2023-02-09T15:33:26.997Z,34.97
2023-02-09T15:35:54.700Z,40.88
2023-02-09T15:38:22.041Z,35.42
2023-02-09T15:41:08.933Z,35.67
2023-02-09T15:43:54.751Z,35.30
2023-02-09T15:46:40.707Z,36.00
2023-02-09T15:49:07.939Z,36.83
2023-02-09T15:51:37.965Z,33.30
2023-02-09T15:54:15.739Z,34.20
2023-02-09T15:56:43.216Z,30.88
2023-02-09T15:59:19.228Z,34.40
2023-02-09T16:01:46.510Z,36.67
2023-02-09T16:04:14.765Z,33.55
2023-02-09T16:06:51.914Z,36.13
2023-02-09T16:09:26.952Z,31.25
2023-02-09T16:11:54.284Z,33.88
2023-02-09T16:14:23.640Z,37.05
2023-02-09T16:16:51.659Z,34.58
2023-02-09T16:19:21.591Z,34.42
2023-02-09T16:21:56.615Z,36.33
2023-02-09T16:24:31.795Z,39.95
2023-02-09T16:27:04.853Z,33.40
2023-02-09T16:29:31.957Z,33.42
2023-02-09T16:31:58.991Z,37.40
2023-02-09T16:34:26.110Z,35.33
2023-02-09T16:36:53.197Z,35.97
2023-02-09T16:39:22.475Z,32.50
2023-02-09T16:41:52.921Z,33.50
2023-02-09T16:44:26.022Z,38.58
2023-02-09T16:46:56.102Z,35.78
2023-02-09T16:49:37.027Z,33.38
2023-02-09T16:52:12.870Z,38.83
2023-02-09T16:54:45.867Z,36.40
2023-02-09T16:57:16.220Z,35.13
2023-02-09T16:59:43.995Z,35.10
2023-02-09T17:02:37.163Z,34.08
2023-02-09T17:05:20.265Z,35.83
2023-02-09T17:07:54.819Z,33.95
2023-02-09T17:10:27.478Z,35.28
2023-02-09T17:12:54.612Z,36.65
2023-02-09T17:15:30.564Z,32.80
2023-02-09T17:18:04.179Z,36.58
2023-02-09T17:20:42.687Z,38.70
2023-02-09T17:23:23.322Z,34.22
2023-02-09T17:25:51.833Z,33.25
2023-02-09T17:28:19.651Z,31.95
2023-02-09T17:30:48.179Z,35.15
2023-02-09T17:33:27.101Z,34.20
2023-02-09T17:36:24.158Z,34.08
2023-02-09T17:38:44.818Z,34.35
2023-02-09T17:41:15.135Z,36.72
2023-02-09T17:43:42.910Z,35.70
2023-02-09T17:46:16.572Z,32.00
2023-02-09T17:48:43.735Z,34.47
2023-02-09T17:51:20.305Z,37.03
2023-02-09T17:53:47.772Z,37.30
2023-02-09T17:56:16.722Z,37.85
2023-02-09T17:58:44.737Z,35.78
2023-02-09T18:01:28.578Z,33.10
2023-02-09T18:03:57.553Z,38.00
2023-02-09T18:06:42.703Z,34.53
2023-02-09T18:09:14.837Z,32.70
2023-02-09T18:11:45.072Z,33.90
2023-02-09T18:14:16.702Z,37.78
2023-02-09T18:16:44.909Z,42.15
2023-02-09T18:19:12.939Z,38.20
2023-02-09T18:21:53.490Z,37.75
2023-02-09T18:24:22.864Z,35.75
2023-02-09T18:26:51.318Z,36.92
2023-02-09T18:29:20.359Z,38.63
2023-02-09T18:31:47.489Z,37.58
2023-02-09T18:34:15.726Z,37.45
2023-02-09T18:36:43.016Z,37.05
2023-02-09T18:39:10.263Z,36.35
2023-02-09T18:41:37.329Z,35.13
2023-02-09T18:44:04.339Z,39.88
2023-02-09T18:46:34.379Z,34.97
2023-02-09T18:51:31.516Z,33.50
2023-02-09T18:53:59.168Z,35.55
2023-02-09T18:56:28.598Z,32.22
2023-02-09T18:58:55.815Z,32.63
2023-02-09T19:01:24.583Z,31.83
2023-02-09T19:03:54.400Z,32.15
2023-02-09T19:08:50.758Z,29.38
2023-02-09T19:11:21.658Z,32.95
2023-02-09T19:14:07.681Z,30.13
2023-02-09T19:16:38.069Z,31.00
2023-02-09T19:19:06.374Z,34.03
2023-02-09T19:21:34.929Z,26.60
2023-02-09T19:24:03.851Z,28.67
2023-02-09T19:26:31.334Z,31.15
2023-02-09T19:28:59.517Z,32.33
2023-02-09T19:31:31.713Z,30.63
2023-02-09T19:33:59.699Z,38.72
2023-02-09T19:36:28.203Z,35.97
2023-02-09T19:38:58.689Z,33.33
2023-02-09T19:41:27.470Z,33.75
2023-02-09T19:46:26.814Z,36.33
2023-02-09T19:48:54.151Z,38.05
2023-02-09T19:51:21.869Z,43.78
2023-02-09T19:53:49.196Z,34.95
2023-02-09T19:56:19.669Z,42.70
2023-02-09T19:58:47.166Z,40.40
2023-02-09T20:01:14.382Z,38.30
2023-02-09T20:03:41.622Z,38.83
2023-02-09T20:06:10.840Z,38.05
2023-02-09T20:08:38.452Z,40.30
2023-02-09T20:11:15.502Z,35.63
2023-02-09T20:13:42.742Z,42.80
2023-02-09T20:16:19.231Z,46.33
2023-02-09T20:18:49.077Z,40.85
2023-02-09T20:21:18.205Z,41.38
2023-02-09T20:23:46.798Z,47.07
2023-02-09T20:26:22.837Z,36.83
2023-02-09T20:28:50.373Z,43.67
2023-02-09T20:31:23.313Z,40.15
2023-02-09T20:33:50.522Z,44.00
2023-02-09T20:36:18.780Z,41.58
2023-02-09T20:38:46.748Z,45.50
2023-02-09T20:41:17.801Z,40.25
2023-02-09T20:44:04.381Z,38.30
2023-02-09T20:46:52.045Z,40.47
2023-02-09T20:49:19.521Z,34.95
2023-02-09T20:51:47.419Z,38.15
2023-02-09T20:54:15.622Z,41.55
2023-02-09T20:56:43.759Z,35.00
2023-02-09T20:59:12.742Z,35.45
2023-02-09T21:01:40.431Z,38.55
2023-02-09T21:04:08.761Z,34.03
2023-02-09T21:06:37.793Z,34.30
2023-02-09T21:09:09.036Z,40.28
2023-02-09T21:11:36.307Z,39.08
2023-02-09T21:14:03.412Z,35.88
2023-02-09T21:16:31.080Z,36.15
2023-02-09T21:18:59.184Z,37.35
2023-02-09T21:21:27.343Z,39.00
2023-02-09T21:23:54.805Z,37.20
2023-02-09T21:26:25.361Z,36.05
2023-02-09T21:28:57.891Z,34.47
2023-02-09T21:31:27.590Z,40.97
2023-02-09T21:33:55.069Z,40.50
2023-02-09T21:36:22.218Z,33.45
2023-02-09T21:38:49.491Z,37.83
2023-02-09T21:41:40.578Z,33.63
2023-02-09T21:44:12.853Z,37.33
2023-02-09T21:46:39.967Z,36.78
2023-02-09T21:49:07.935Z,53.58
2023-02-09T21:51:35.445Z,41.97
2023-02-09T21:54:02.708Z,36.90
2023-02-09T21:56:29.787Z,39.47
2023-02-09T21:58:57.029Z,42.95
2023-02-09T22:01:24.185Z,37.33
2023-02-09T22:03:57.395Z,43.30
2023-02-09T22:06:25.723Z,36.83
2023-02-09T22:08:53.013Z,34.92
2023-02-09T22:11:20.111Z,33.22
2023-02-09T22:13:47.212Z,38.78
2023-02-09T22:16:20.020Z,40.67
2023-02-09T22:18:47.189Z,50.10
2023-02-09T22:21:14.277Z,43.30
2023-02-09T22:23:41.446Z,37.42
2023-02-09T22:26:08.597Z,42.22
2023-02-09T22:28:36.514Z,34.92
2023-02-09T22:31:08.692Z,38.65
2023-02-09T22:33:36.571Z,38.83
2023-02-09T22:36:18.518Z,39.13
2023-02-09T22:38:45.705Z,34.40
2023-02-09T22:41:23.886Z,32.70
2023-02-09T22:44:01.420Z,42.00
2023-02-09T22:46:35.408Z,37.28
2023-02-09T22:49:06.102Z,36.33
2023-02-09T22:51:34.715Z,35.90
2023-02-09T22:54:02.887Z,33.70
2023-02-09T22:56:31.077Z,34.38
2023-02-09T22:58:59.618Z,33.47
2023-02-09T23:01:28.418Z,29.83
2023-02-09T23:03:55.756Z,35.72
2023-02-09T23:06:27.320Z,35.88
2023-02-09T23:08:59.725Z,32.50
2023-02-09T23:11:27.244Z,36.13
2023-02-09T23:14:08.426Z,32.42
2023-02-09T23:16:37.545Z,37.40
2023-02-09T23:19:07.426Z,33.75
2023-02-09T23:21:38.992Z,39.50
2023-02-09T23:24:07.417Z,49.88
2023-02-09T23:26:35.476Z,34.58
2023-02-09T23:29:05.691Z,32.70
2023-02-09T23:34:00.055Z,31.08
2023-02-09T23:36:29.815Z,31.33
2023-02-09T23:39:00.225Z,33.33
2023-02-09T23:41:28.069Z,30.85
2023-02-09T23:43:56.238Z,32.25
2023-02-09T23:46:27.978Z,35.42
2023-02-09T23:48:56.205Z,30.45
2023-02-09T23:51:32.193Z,31.38
2023-02-09T23:54:03.745Z,30.10
2023-02-09T23:56:37.032Z,28.05
2023-02-09T23:59:07.712Z,31.45
